Airfield :
LOGIN :

Register | Disclaimer

   EN    FR    IT 

 










Legend :    VFR   Marginal VFR   IFR   Intensive IFR   Very Intensive IFR
Visi :
Ceiling :
>= 8 km
>= 3000ft
5 to 8 km
1000 to 3000 ft
1500m to 5 km
500 to 1000 ft
800 to 1500m
200 to 500 ft
< 800m
< 200 ft
Symbols :   Thunderstorms  Fog  Heavy snow  Heavy precipitations  Wind > 20 kt
SIGMETs :     Misc.  Thunderstorms  Icing  Turbulence  Mountain Waves  Volcanic Ashes







- Airport Elevation : 72 ft
- IATA code : UDE


EHVK - Volkel Airbase

CURRENT METAR :
  • 111255Z AUTO 29005KT 260V330 9999 BKN056 08/04 Q1024 BLU 28005KT 9999 FEW022 SCT050

EXPIRED METARs :
  • 111243Z AUTO 29006KT 9999 FEW022 SCT055 07/03 Q1024 BLU 28005KT 9999 FEW022 SCT050
  • 111225Z AUTO 30006KT 260V330 9999 SCT029 BKN035 BKN039 07/03 Q1024 BLU
  • 111155Z AUTO 29006KT 260V330 9999 BKN034 OVC052 08/04 Q1024 BLU
  • 111125Z AUTO 29005KT 260V330 9999 SCT054 07/03 Q1024 BLU
  • 111055Z AUTO 28005KT 250V310 9999 SCT053 07/03 Q1024 BLU
  • 111025Z AUTO 28006KT 250V310 9999 SCT060 06/02 Q1024 BLU

TAF TAF EHVK
Valid from the 11 at 10:00 until the 11 at 22:00 UTC


110904Z 1110/1122 28006KT 9999 SCT030
No reported NOTAMs for that airfield.



MET'MAP, your aeronautical weather chart ! - Copyright ORBIFLY December 2007 - Disclaimer

ORBIFLY MET'MAP TEAM :

Programming & Development : Alexandra Zaïnal
Concept & Development : Baudouin d'Aumeries
Co-Development & Prog : Marc-Olivier Méhu
Technical & hardware support : Manuel Goepfert

Contact : metmap@orbifly.com




SOURCES & CREDITS :

   NOAA